createdAt,value
2022-12-28T18:05:34.581Z,70.03
2022-12-28T18:08:01.649Z,67.60
2022-12-28T18:10:28.630Z,66.63
2022-12-28T18:12:55.538Z,65.15
2022-12-28T18:15:22.476Z,63.71
2022-12-28T18:17:49.448Z,63.35
2022-12-28T18:20:16.481Z,62.67
2022-12-28T18:22:43.423Z,61.41
2022-12-28T18:25:10.440Z,61.38
2022-12-28T18:27:40.366Z,61.14
2022-12-28T18:30:09.089Z,61.53
2022-12-28T18:32:36.381Z,61.44
2022-12-28T18:35:03.764Z,61.01
2022-12-28T18:37:30.798Z,60.10
2022-12-28T18:39:57.828Z,59.30
2022-12-28T18:42:25.577Z,59.68
2022-12-28T18:44:52.600Z,59.73
2022-12-28T18:47:19.728Z,59.79
2022-12-28T18:49:48.207Z,59.26
2022-12-28T18:52:16.809Z,59.21
2022-12-28T18:54:43.991Z,59.08
2022-12-28T18:57:11.168Z,58.38
2022-12-28T18:59:38.192Z,58.62
2022-12-28T19:02:07.688Z,58.64
2022-12-28T19:04:35.463Z,58.28
2022-12-28T19:09:06.211Z,55.47
2022-12-28T19:11:33.826Z,56.51
2022-12-28T19:14:03.484Z,57.44
2022-12-28T19:19:33.170Z,58.12
2022-12-28T19:22:00.311Z,91.20
2022-12-28T19:24:27.698Z,100.00
2022-12-28T19:26:56.428Z,100.00
2022-12-28T19:29:24.887Z,100.00
2022-12-28T19:31:52.256Z,100.00
2022-12-28T19:34:19.386Z,100.00
2022-12-28T19:36:46.546Z,100.00
2022-12-28T19:39:13.943Z,100.00
2022-12-28T19:41:41.104Z,100.00
2022-12-28T19:44:08.212Z,100.00
2022-12-28T19:46:35.485Z,100.00
2022-12-28T19:49:04.649Z,100.00
2022-12-28T19:51:33.471Z,100.00
2022-12-28T19:54:01.561Z,100.00
2022-12-28T19:56:30.752Z,100.00
2022-12-28T19:59:05.515Z,100.00
2022-12-28T20:01:37.087Z,100.00
2022-12-28T20:04:12.510Z,100.00
2022-12-28T20:06:45.111Z,100.00
2022-12-28T20:09:14.146Z,100.00
2022-12-28T20:11:42.422Z,100.00
2022-12-28T20:14:14.622Z,100.00
2022-12-28T20:16:49.316Z,100.00
2022-12-28T20:19:16.836Z,100.00
2022-12-28T20:21:49.665Z,100.00
2022-12-28T20:24:22.025Z,100.00
2022-12-28T20:26:49.245Z,100.00
2022-12-28T20:29:18.511Z,100.00
2022-12-28T20:31:49.707Z,100.00
2022-12-28T20:34:22.161Z,100.00
2022-12-28T20:36:58.412Z,100.00
2022-12-28T20:39:26.975Z,100.00
2022-12-28T20:42:12.942Z,100.00
2022-12-28T20:44:40.377Z,100.00
2022-12-28T20:47:15.596Z,100.00
2022-12-28T20:49:45.759Z,100.00
2022-12-28T20:52:13.572Z,100.00
2022-12-28T20:54:41.038Z,100.00
2022-12-28T20:57:13.328Z,100.00
2022-12-28T20:59:53.004Z,100.00
2022-12-28T21:02:27.570Z,100.00
2022-12-28T21:05:00.267Z,100.00
2022-12-28T21:07:36.839Z,100.00
2022-12-28T21:10:18.283Z,100.00
2022-12-28T21:12:56.720Z,100.00
2022-12-28T21:15:39.794Z,100.00
2022-12-28T21:18:13.220Z,100.00
2022-12-28T21:20:51.485Z,100.00
2022-12-28T21:23:19.041Z,100.00
2022-12-28T21:25:46.241Z,100.00
2022-12-28T21:28:13.494Z,100.00
2022-12-28T21:30:40.788Z,100.00
2022-12-28T21:33:08.050Z,100.00
2022-12-28T21:35:35.367Z,100.00
2022-12-28T21:38:04.409Z,100.00
2022-12-28T21:40:31.785Z,100.00
2022-12-28T21:43:01.861Z,100.00
2022-12-28T21:45:29.367Z,100.00
2022-12-28T21:47:56.526Z,100.00
2022-12-28T21:50:23.697Z,100.00
2022-12-28T21:52:50.801Z,100.00
2022-12-28T21:55:36.833Z,100.00
2022-12-28T21:58:03.947Z,100.00
2022-12-28T22:00:49.725Z,100.00
2022-12-28T22:03:35.795Z,100.00
2022-12-28T22:06:03.997Z,100.00
2022-12-28T22:08:50.674Z,100.00
2022-12-28T22:11:37.271Z,100.00
2022-12-28T22:14:07.715Z,100.00
2022-12-28T22:16:35.961Z,100.00
2022-12-28T22:19:04.919Z,100.00
2022-12-28T22:21:32.203Z,100.00
2022-12-28T22:23:59.248Z,100.00
2022-12-28T22:26:26.403Z,100.00
2022-12-28T22:28:53.366Z,100.00
2022-12-28T22:31:20.798Z,100.00
2022-12-28T22:33:47.876Z,100.00
2022-12-28T22:36:18.531Z,100.00
2022-12-28T22:38:46.262Z,100.00
2022-12-28T22:46:12.072Z,100.00
2022-12-28T22:48:39.442Z,100.00
2022-12-28T22:51:12.673Z,100.00
2022-12-28T22:53:41.176Z,100.00
2022-12-28T22:56:19.942Z,100.00
2022-12-28T22:58:48.267Z,100.00
2022-12-28T23:01:19.327Z,100.00
2022-12-28T23:03:47.844Z,100.00
2022-12-28T23:06:20.480Z,100.00
2022-12-28T23:08:48.322Z,100.00
2022-12-28T23:11:36.719Z,100.00
2022-12-28T23:14:28.935Z,100.00
2022-12-28T23:16:56.439Z,100.00
2022-12-28T23:19:42.527Z,100.00
2022-12-28T23:22:33.186Z,100.00
2022-12-28T23:25:19.102Z,100.00
2022-12-28T23:27:47.657Z,100.00
2022-12-28T23:30:19.570Z,100.00
2022-12-28T23:32:53.350Z,100.00
2022-12-28T23:35:22.579Z,100.00
2022-12-28T23:37:50.210Z,100.00
2022-12-28T23:40:19.583Z,100.00
2022-12-28T23:42:48.446Z,100.00
2022-12-28T23:45:18.095Z,100.00
2022-12-28T23:47:45.684Z,100.00
2022-12-28T23:50:15.392Z,100.00
2022-12-28T23:52:42.987Z,100.00
2022-12-28T23:55:10.942Z,100.00
2022-12-28T23:57:38.725Z,100.00
